Time;durP1;ratioP1;P1;durP2;ratioP2;P2;SDS_P1;SDS_P2;PMS_P1;PMS_P2;Temp;Humidity;BMP_temperature;BMP_pressure;BME280_temperature;BME280_humidity;BME280_pressure;Samples;Min_cycle;Max_cycle;Signal;HPM_P1;HPM_P2
2024/03/31 00:01:38;;;;;;;36.37;32.57;;;7.40;1.00;;;;;;5097346;28;20461;-64
2024/03/31 00:04:06;;;;;;;36.93;33.03;;;7.40;1.00;;;;;;5097068;28;20456;-64
2024/03/31 00:06:32;;;;;;;35.07;31.57;;;7.40;1.00;;;;;;5096965;28;20748;-64
2024/03/31 00:09:00;;;;;;;38.00;32.17;;;7.40;99.90;;;;;;5097992;28;20484;-64
2024/03/31 00:11:26;;;;;;;34.60;31.00;;;7.40;99.90;;;;;;5100996;28;20478;-64
2024/03/31 00:13:53;;;;;;;32.90;29.57;;;7.40;99.90;;;;;;5100705;28;20766;-64
2024/03/31 00:16:21;;;;;;;34.40;30.80;;;7.30;99.90;;;;;;5100664;28;20472;-64
2024/03/31 00:18:48;;;;;;;36.47;32.43;;;7.30;99.90;;;;;;5100800;28;20704;-64
2024/03/31 00:21:15;;;;;;;37.77;33.87;;;7.20;99.90;;;;;;5101064;28;20545;-64
2024/03/31 00:23:42;;;;;;;37.50;33.17;;;7.30;99.90;;;;;;5100849;28;20897;-64
2024/03/31 00:26:09;;;;;;;35.30;31.60;;;7.20;99.90;;;;;;5100586;28;20494;-64
2024/03/31 00:28:36;;;;;;;35.43;31.90;;;7.20;1.00;;;;;;5100560;28;20492;-64
2024/03/31 00:31:03;;;;;;;38.20;33.90;;;7.20;99.90;;;;;;5100248;28;20781;-64
2024/03/31 00:33:31;;;;;;;40.30;36.10;;;7.20;99.90;;;;;;5100626;28;20460;-64
2024/03/31 00:36:00;;;;;;;41.07;35.27;;;7.10;99.90;;;;;;5100540;28;20460;-64
2024/03/31 00:38:26;;;;;;;39.03;34.83;;;7.10;1.00;;;;;;5100411;28;20441;-64
2024/03/31 00:40:54;;;;;;;42.33;37.77;;;7.10;1.00;;;;;;5100363;28;20466;-64
2024/03/31 00:43:21;;;;;;;40.27;35.87;;;7.00;1.00;;;;;;5100863;28;20505;-64
2024/03/31 00:45:48;;;;;;;42.00;37.80;;;7.00;1.00;;;;;;5100367;28;20456;-64
2024/03/31 00:48:14;;;;;;;40.83;36.63;;;7.00;99.90;;;;;;5100144;28;20491;-64
2024/03/31 00:50:43;;;;;;;42.17;38.00;;;7.00;99.90;;;;;;5100388;28;20484;-64
2024/03/31 00:53:09;;;;;;;43.27;39.07;;;7.00;99.90;;;;;;5100136;28;20890;-65
2024/03/31 00:55:37;;;;;;;42.10;37.40;;;7.10;1.00;;;;;;5100544;28;20506;-64
2024/03/31 00:58:03;;;;;;;41.30;37.00;;;7.10;99.90;;;;;;5100161;28;20475;-64
2024/03/31 01:00:32;;;;;;;40.80;36.50;;;7.10;99.90;;;;;;5100223;28;20460;-64
2024/03/31 01:02:59;;;;;;;35.93;32.10;;;7.10;99.90;;;;;;5099872;28;20460;-64
2024/03/31 01:05:26;;;;;;;33.60;30.00;;;7.10;99.90;;;;;;5100353;28;20456;-64
2024/03/31 01:07:54;;;;;;;32.90;29.67;;;7.10;99.90;;;;;;5099605;28;20495;-64
2024/03/31 01:10:22;;;;;;;32.23;28.90;;;7.10;99.90;;;;;;5099915;28;20464;-64
2024/03/31 01:12:49;;;;;;;32.47;29.20;;;7.10;99.90;;;;;;5099772;28;20464;-64
2024/03/31 01:15:16;;;;;;;32.90;29.50;;;7.10;93.80;;;;;;5100094;28;20485;-64
2024/03/31 01:17:42;;;;;;;32.10;28.80;;;7.10;92.70;;;;;;5099232;28;20542;-64
2024/03/31 01:20:10;;;;;;;30.13;27.03;;;7.10;1.00;;;;;;5099235;28;20431;-64
2024/03/31 01:22:37;;;;;;;31.67;28.47;;;7.10;99.90;;;;;;5099206;28;20505;-64
2024/03/31 01:25:06;;;;;;;33.57;30.10;;;7.20;99.90;;;;;;5099598;28;20551;-65
2024/03/31 01:27:33;;;;;;;34.43;30.73;;;7.20;99.90;;;;;;5099268;28;20461;-64
2024/03/31 01:30:00;;;;;;;35.23;31.73;;;7.20;99.90;;;;;;5098902;28;20579;-64
2024/03/31 01:32:27;;;;;;;34.27;30.93;;;7.20;83.50;;;;;;5099079;28;20510;-65
2024/03/31 01:34:54;;;;;;;32.20;29.03;;;7.10;12.00;;;;;;5099519;28;20478;-66
2024/03/31 01:37:21;;;;;;;32.13;28.87;;;7.00;1.00;;;;;;5098814;28;20931;-64
2024/03/31 01:39:47;;;;;;;32.27;28.83;;;7.00;1.00;;;;;;5099368;28;20496;-64
2024/03/31 01:42:16;;;;;;;32.00;28.77;;;6.90;98.50;;;;;;5099320;28;20510;-64
2024/03/31 01:44:42;;;;;;;30.57;27.57;;;6.90;99.90;;;;;;5099254;28;20460;-64
2024/03/31 01:47:10;;;;;;;30.33;27.37;;;6.90;99.90;;;;;;5099387;28;20803;-64
2024/03/31 01:49:36;;;;;;;37.40;29.63;;;6.90;94.10;;;;;;5099253;28;20522;-64
2024/03/31 01:52:03;;;;;;;30.63;27.50;;;6.90;99.90;;;;;;5098981;28;20456;-65
2024/03/31 01:54:29;;;;;;;31.87;28.77;;;6.90;99.90;;;;;;5098916;28;20529;-64
2024/03/31 01:56:57;;;;;;;30.37;27.13;;;6.90;99.90;;;;;;5099161;28;20457;-64
2024/03/31 01:59:24;;;;;;;32.87;29.47;;;6.90;99.90;;;;;;5099047;28;20456;-64
2024/03/31 02:01:51;;;;;;;30.27;27.33;;;6.90;99.90;;;;;;5099262;28;20750;-64
2024/03/31 02:04:18;;;;;;;30.10;27.00;;;6.90;99.90;;;;;;5098786;28;20556;-64
2024/03/31 02:06:45;;;;;;;29.47;26.47;;;6.90;99.90;;;;;;5098625;28;20513;-64
2024/03/31 02:09:11;;;;;;;31.23;28.03;;;6.90;99.90;;;;;;5098586;28;20589;-64
2024/03/31 02:11:38;;;;;;;35.27;31.63;;;6.90;99.90;;;;;;5099021;28;20881;-65
2024/03/31 02:14:05;;;;;;;33.63;30.10;;;7.00;99.90;;;;;;5098228;28;20555;-64
2024/03/31 02:16:33;;;;;;;33.40;30.07;;;6.90;99.90;;;;;;5098330;28;20939;-64
2024/03/31 02:18:59;;;;;;;32.93;29.20;;;6.90;1.00;;;;;;5098562;28;20480;-64
2024/03/31 02:21:27;;;;;;;33.60;30.20;;;6.90;99.90;;;;;;5098919;28;20815;-64
2024/03/31 02:23:53;;;;;;;35.10;31.37;;;6.90;99.90;;;;;;5098196;28;20747;-64
2024/03/31 02:26:20;;;;;;;37.80;34.00;;;6.90;99.90;;;;;;5098507;28;20814;-64
2024/03/31 02:28:47;;;;;;;35.67;32.00;;;6.90;1.00;;;;;;5098227;28;20964;-64
2024/03/31 02:31:14;;;;;;;38.73;34.83;;;6.90;1.00;;;;;;5098585;28;20456;-64
2024/03/31 02:33:41;;;;;;;39.90;35.70;;;6.90;1.00;;;;;;5097410;28;20874;-64
2024/03/31 02:36:09;;;;;;;38.10;34.10;;;6.90;1.00;;;;;;5098532;28;20860;-64
2024/03/31 02:38:35;;;;;;;34.83;31.43;;;6.90;1.00;;;;;;5097929;28;20544;-64
2024/03/31 02:41:02;;;;;;;35.00;31.40;;;6.90;1.00;;;;;;5098390;28;20885;-64
2024/03/31 02:43:29;;;;;;;35.33;30.67;;;6.90;1.00;;;;;;5098420;28;20808;-64
2024/03/31 02:45:56;;;;;;;32.17;28.93;;;6.90;1.00;;;;;;5098060;28;20464;-64
2024/03/31 02:48:22;;;;;;;31.90;28.80;;;6.90;1.00;;;;;;5097824;28;20544;-65
2024/03/31 02:50:51;;;;;;;32.10;28.77;;;6.90;99.90;;;;;;5098208;28;20456;-64
2024/03/31 02:53:17;;;;;;;33.70;30.07;;;6.90;99.90;;;;;;5098211;28;20456;-65
2024/03/31 02:55:44;;;;;;;34.33;30.77;;;6.80;1.00;;;;;;5098239;28;20871;-65
2024/03/31 02:58:10;;;;;;;33.17;29.27;;;6.80;1.00;;;;;;5097723;28;20430;-64
2024/03/31 03:00:37;;;;;;;36.93;32.97;;;6.80;1.00;;;;;;5097832;28;20730;-64
2024/03/31 03:03:04;;;;;;;40.53;35.43;;;6.80;69.30;;;;;;5097940;28;20456;-64
2024/03/31 03:05:31;;;;;;;39.73;35.47;;;6.90;99.90;;;;;;5098025;28;20905;-64
2024/03/31 03:07:59;;;;;;;45.37;40.60;;;6.90;99.90;;;;;;5097210;28;20491;-64
2024/03/31 03:10:26;;;;;;;43.93;39.53;;;7.00;99.90;;;;;;5097403;28;20495;-64
2024/03/31 03:12:52;;;;;;;45.03;40.43;;;6.90;99.90;;;;;;5097393;28;20457;-65
2024/03/31 03:15:20;;;;;;;43.40;39.13;;;7.00;1.00;;;;;;5097926;28;20462;-64
2024/03/31 03:17:47;;;;;;;45.77;41.17;;;7.10;1.00;;;;;;5097263;28;20549;-65
2024/03/31 03:20:14;;;;;;;45.40;41.00;;;7.10;1.00;;;;;;5097421;28;20456;-65
2024/03/31 03:22:40;;;;;;;43.60;39.37;;;7.20;1.00;;;;;;5097234;28;20488;-65
2024/03/31 03:25:09;;;;;;;42.00;37.77;;;7.30;1.00;;;;;;5097709;28;20463;-65
2024/03/31 03:27:35;;;;;;;40.73;36.57;;;7.30;1.00;;;;;;5097366;28;20456;-65
2024/03/31 03:30:03;;;;;;;39.63;35.73;;;7.40;1.00;;;;;;5097076;28;20484;-66
2024/03/31 03:32:29;;;;;;;40.80;36.80;;;7.40;1.00;;;;;;5097471;28;20460;-66
2024/03/31 03:34:56;;;;;;;41.17;37.27;;;7.40;1.00;;;;;;5097587;28;20933;-67
2024/03/31 03:37:23;;;;;;;44.40;39.80;;;7.30;99.90;;;;;;5097589;28;20470;-68
2024/03/31 03:39:51;;;;;;;41.50;37.20;;;7.40;1.00;;;;;;5097868;28;20455;-67
2024/03/31 03:42:19;;;;;;;32.87;29.60;;;7.40;1.00;;;;;;5099116;28;20456;-68
2024/03/31 03:44:47;;;;;;;37.43;33.43;;;7.40;1.00;;;;;;5099302;28;20534;-68
2024/03/31 03:47:13;;;;;;;26.83;21.90;;;7.40;99.90;;;;;;5101560;28;20543;-67
2024/03/31 03:49:40;;;;;;;23.90;21.13;;;7.50;99.90;;;;;;5101668;28;20759;-67
2024/03/31 03:52:06;;;;;;;28.00;20.17;;;7.60;99.90;;;;;;5101267;28;20542;-68
2024/03/31 03:54:34;;;;;;;25.40;22.70;;;7.70;99.90;;;;;;5101532;28;20559;-69
2024/03/31 03:57:00;;;;;;;31.17;22.50;;;7.80;99.90;;;;;;5101492;28;20499;-68
2024/03/31 03:59:28;;;;;;;23.93;19.57;;;7.80;99.90;;;;;;5101411;28;20452;-67
2024/03/31 04:01:55;;;;;;;20.80;18.60;;;7.80;99.90;;;;;;5100984;28;20456;-68
2024/03/31 04:04:22;;;;;;;22.90;19.40;;;7.80;99.90;;;;;;5101285;28;20855;-69
2024/03/31 04:06:48;;;;;;;21.70;18.47;;;7.90;1.00;;;;;;5101261;28;20437;-68
2024/03/31 04:09:15;;;;;;;24.63;21.37;;;7.90;1.00;;;;;;5107584;28;20480;-67
2024/03/31 04:11:41;;;;;;;23.13;19.37;;;7.90;99.90;;;;;;5110844;28;20520;-66
2024/03/31 04:14:09;;;;;;;27.27;18.67;;;7.90;99.90;;;;;;5103878;28;20480;-67
2024/03/31 04:16:36;;;;;;;23.33;18.20;;;8.00;99.90;;;;;;5100787;28;20928;-67
2024/03/31 04:19:03;;;;;;;21.47;18.60;;;8.00;99.90;;;;;;5101212;28;20873;-68
2024/03/31 04:21:30;;;;;;;28.00;17.67;;;8.00;99.90;;;;;;5100883;28;20456;-68
2024/03/31 04:23:57;;;;;;;24.97;17.00;;;8.10;1.00;;;;;;5100813;28;20506;-67
2024/03/31 04:26:25;;;;;;;22.13;14.77;;;8.10;1.00;;;;;;5100922;28;20715;-67
2024/03/31 04:28:53;;;;;;;20.97;16.60;;;8.20;1.00;;;;;;5100802;28;20492;-66
2024/03/31 04:31:19;;;;;;;24.63;16.17;;;8.20;1.00;;;;;;5100333;28;20981;-66
2024/03/31 04:33:48;;;;;;;23.20;14.83;;;8.20;1.00;;;;;;5118222;28;20899;-67
2024/03/31 04:36:15;;;;;;;16.40;12.70;;;8.20;80.10;;;;;;5120905;28;20455;-66
2024/03/31 04:38:42;;;;;;;19.43;13.03;;;8.30;99.90;;;;;;5120871;28;20460;-66
2024/03/31 04:41:09;;;;;;;19.87;11.07;;;8.20;99.90;;;;;;5120893;28;20545;-66
2024/03/31 04:43:36;;;;;;;17.90;11.00;;;8.30;99.90;;;;;;5120864;28;20482;-66
2024/03/31 04:46:04;;;;;;;16.77;10.47;;;8.40;1.00;;;;;;5120626;28;20494;-66
2024/03/31 04:48:31;;;;;;;15.47;10.10;;;8.40;1.00;;;;;;5120843;28;20459;-67
2024/03/31 04:51:01;;;;;;;14.40;9.50;;;8.40;6.20;;;;;;5120972;28;20498;-67
2024/03/31 04:53:28;;;;;;;14.37;8.50;;;8.40;99.90;;;;;;5121063;28;20434;-66
2024/03/31 04:55:55;;;;;;;19.47;9.40;;;8.50;99.90;;;;;;5119216;28;20934;-67
2024/03/31 04:58:22;;;;;;;13.23;9.00;;;8.50;1.00;;;;;;5120689;28;20888;-67
2024/03/31 05:00:48;;;;;;;19.37;8.33;;;8.50;99.90;;;;;;5120316;28;20483;-66
2024/03/31 05:03:15;;;;;;;16.03;8.20;;;8.60;1.00;;;;;;5120769;28;20795;-67
2024/03/31 05:05:42;;;;;;;19.07;7.80;;;8.60;1.00;;;;;;5120792;28;20455;-67
2024/03/31 05:08:10;;;;;;;12.13;8.17;;;8.60;1.00;;;;;;5120435;28;20451;-66
2024/03/31 05:10:37;;;;;;;13.73;8.30;;;8.60;1.00;;;;;;5119933;28;20544;-67
2024/03/31 05:13:04;;;;;;;15.23;8.20;;;8.60;1.00;;;;;;5120495;28;20434;-66
2024/03/31 05:15:30;;;;;;;14.57;7.73;;;8.60;26.30;;;;;;5120191;28;20430;-66
2024/03/31 05:17:57;;;;;;;14.03;7.60;;;8.60;54.20;;;;;;5120012;28;20495;-67
2024/03/31 05:20:24;;;;;;;12.00;6.40;;;8.70;95.90;;;;;;5120028;28;20541;-66
2024/03/31 05:22:53;;;;;;;12.70;7.40;;;8.70;99.90;;;;;;5119950;28;20467;-67
2024/03/31 05:25:21;;;;;;;12.90;6.97;;;8.80;99.90;;;;;;5120335;28;20896;-66
2024/03/31 05:27:48;;;;;;;10.53;6.10;;;8.80;99.90;;;;;;5119969;28;20521;-66
2024/03/31 05:30:14;;;;;;;11.33;7.03;;;8.80;99.90;;;;;;5119630;28;20510;-66
2024/03/31 05:32:41;;;;;;;15.83;6.63;;;8.80;99.90;;;;;;5119803;28;20458;-67
2024/03/31 05:35:08;;;;;;;12.33;6.20;;;8.90;99.90;;;;;;5119390;28;20477;-67
2024/03/31 05:37:35;;;;;;;15.87;7.03;;;8.90;99.90;;;;;;5119182;28;20456;-67
2024/03/31 05:40:01;;;;;;;19.50;6.80;;;9.00;99.90;;;;;;5119175;28;20436;-66
2024/03/31 05:42:29;;;;;;;15.30;7.60;;;9.10;99.90;;;;;;5119360;28;20513;-66
2024/03/31 05:44:56;;;;;;;16.23;7.27;;;9.10;99.90;;;;;;5119359;28;20492;-67
2024/03/31 05:47:23;;;;;;;13.40;6.67;;;9.00;99.90;;;;;;5119825;28;20434;-66
2024/03/31 05:49:49;;;;;;;16.30;7.87;;;9.00;99.90;;;;;;5119701;28;20581;-67
2024/03/31 05:52:16;;;;;;;13.73;7.60;;;9.10;99.90;;;;;;5119294;28;20455;-67
2024/03/31 05:54:42;;;;;;;16.83;8.57;;;9.10;99.90;;;;;;5119247;28;20508;-67
2024/03/31 05:57:10;;;;;;;9.80;6.90;;;9.10;99.90;;;;;;5119344;28;20528;-66
2024/03/31 05:59:37;;;;;;;10.53;5.90;;;9.10;99.90;;;;;;5119317;28;20483;-68
2024/03/31 06:02:05;;;;;;;13.93;6.90;;;9.10;99.90;;;;;;5119229;28;20486;-67
2024/03/31 06:04:33;;;;;;;9.57;6.70;;;9.10;99.90;;;;;;5119086;28;20912;-67
2024/03/31 06:07:01;;;;;;;14.43;6.60;;;9.10;99.90;;;;;;5119145;28;20459;-68
2024/03/31 06:09:27;;;;;;;12.80;6.40;;;9.10;99.90;;;;;;5119405;28;20484;-68
2024/03/31 06:11:54;;;;;;;8.53;5.03;;;9.10;99.90;;;;;;5118936;28;20467;-69
2024/03/31 06:14:20;;;;;;;11.93;6.00;;;9.20;99.90;;;;;;5118888;28;20563;-69
2024/03/31 06:16:49;;;;;;;15.93;5.80;;;9.20;99.90;;;;;;5118329;28;20495;-68
2024/03/31 06:19:15;;;;;;;9.40;4.77;;;9.30;99.90;;;;;;5119083;28;20546;-69
2024/03/31 06:21:42;;;;;;;8.13;4.27;;;9.40;99.90;;;;;;5118796;28;20463;-68
2024/03/31 06:24:10;;;;;;;9.43;4.20;;;9.40;99.90;;;;;;5118139;28;20462;-68
2024/03/31 06:26:37;;;;;;;18.57;6.80;;;9.50;99.90;;;;;;5118608;28;20466;-67
2024/03/31 06:29:04;;;;;;;14.47;7.77;;;9.50;99.90;;;;;;5118700;28;20793;-67
2024/03/31 06:31:31;;;;;;;16.37;10.37;;;9.50;99.90;;;;;;5119159;28;20458;-67
2024/03/31 06:33:59;;;;;;;15.77;8.10;;;9.70;99.90;;;;;;5118274;28;20495;-67
2024/03/31 06:36:26;;;;;;;15.23;5.73;;;9.70;99.90;;;;;;5118574;28;20521;-67
2024/03/31 06:38:52;;;;;;;14.70;4.80;;;9.90;99.90;;;;;;5118139;28;20558;-67
2024/03/31 06:41:20;;;;;;;14.83;5.00;;;10.00;99.90;;;;;;5118932;28;20721;-67
2024/03/31 06:43:46;;;;;;;10.83;5.60;;;10.10;99.90;;;;;;5118862;28;21000;-67
2024/03/31 06:46:13;;;;;;;11.57;4.87;;;10.10;99.90;;;;;;5118265;28;20455;-67
2024/03/31 06:48:39;;;;;;;13.20;4.07;;;10.20;99.90;;;;;;5118388;28;20456;-67
2024/03/31 06:51:08;;;;;;;10.30;4.37;;;10.20;99.90;;;;;;5118314;28;20483;-67
2024/03/31 06:53:34;;;;;;;9.83;3.77;;;10.30;99.90;;;;;;5118472;28;20880;-67
2024/03/31 06:56:01;;;;;;;12.37;4.00;;;10.40;99.90;;;;;;5118444;28;20449;-68
2024/03/31 06:58:28;;;;;;;10.10;4.43;;;10.40;99.90;;;;;;5117999;28;20455;-68
2024/03/31 07:00:57;;;;;;;6.33;3.80;;;10.50;99.90;;;;;;5118151;28;20451;-67
2024/03/31 07:03:23;;;;;;;11.17;3.73;;;10.50;99.90;;;;;;5118170;28;20456;-67
2024/03/31 07:05:51;;;;;;;13.17;4.37;;;10.60;99.90;;;;;;5118255;28;20451;-67
2024/03/31 07:08:18;;;;;;;6.47;3.33;;;10.70;99.90;;;;;;5116809;28;20554;-67
2024/03/31 07:10:46;;;;;;;13.20;4.37;;;10.80;99.90;;;;;;5117609;28;20575;-67
2024/03/31 07:13:12;;;;;;;9.83;4.33;;;10.80;99.90;;;;;;5117469;28;20491;-67
2024/03/31 07:15:39;;;;;;;10.13;3.20;;;10.90;99.90;;;;;;5117921;28;20456;-67
2024/03/31 07:18:07;;;;;;;10.63;3.70;;;11.00;99.90;;;;;;5115491;28;20521;-67
2024/03/31 07:20:35;;;;;;;9.03;3.53;;;11.20;99.90;;;;;;5116036;28;20452;-66
2024/03/31 07:23:02;;;;;;;7.47;3.40;;;11.50;99.90;;;;;;5116629;28;20976;-67
2024/03/31 07:25:32;;;;;;;12.93;3.63;;;11.80;99.90;;;;;;5116597;28;20497;-67
2024/03/31 07:27:58;;;;;;;9.13;3.20;;;12.00;1.00;;;;;;5116124;28;20554;-66
2024/03/31 07:30:26;;;;;;;6.33;3.60;;;12.10;99.90;;;;;;5116007;28;20483;-66
2024/03/31 07:32:52;;;;;;;7.73;3.53;;;12.10;99.90;;;;;;5116424;28;20466;-66
2024/03/31 07:35:20;;;;;;;7.67;3.47;;;12.10;99.90;;;;;;5116603;28;20454;-65
2024/03/31 07:37:46;;;;;;;7.37;3.43;;;12.10;6.40;;;;;;5116865;28;20460;-65
2024/03/31 07:40:14;;;;;;;7.87;3.17;;;12.30;99.90;;;;;;5117175;28;20456;-64
2024/03/31 07:42:42;;;;;;;7.57;3.10;;;12.60;99.90;;;;;;5117394;28;20550;-64
2024/03/31 07:45:09;;;;;;;12.90;3.43;;;12.90;60.20;;;;;;5117723;28;20477;-64
2024/03/31 07:47:35;;;;;;;9.07;3.77;;;13.20;1.00;;;;;;5117940;28;20546;-64
2024/03/31 07:50:02;;;;;;;9.70;3.73;;;13.40;1.00;;;;;;5117570;28;20487;-63
2024/03/31 07:52:29;;;;;;;7.53;3.20;;;13.40;99.90;;;;;;5116340;28;20465;-63
2024/03/31 07:54:56;;;;;;;13.10;3.33;;;13.30;1.00;;;;;;5115603;28;20447;-64
2024/03/31 07:57:22;;;;;;;7.87;3.07;;;13.20;99.90;;;;;;5115869;28;20509;-62
2024/03/31 07:59:51;;;;;;;7.90;3.30;;;13.20;99.90;;;;;;5115934;28;20448;-62
2024/03/31 08:02:17;;;;;;;10.53;3.20;;;13.60;1.00;;;;;;5115667;28;20459;-62
2024/03/31 08:04:45;;;;;;;8.70;3.40;;;13.90;1.00;;;;;;5115850;28;20528;-62
2024/03/31 08:07:11;;;;;;;11.07;3.73;;;14.40;99.90;;;;;;5116207;28;20463;-62
2024/03/31 08:09:39;;;;;;;10.00;5.27;;;14.70;99.90;;;;;;5117656;28;20536;-62
2024/03/31 08:12:05;;;;;;;6.47;3.43;;;14.80;1.00;;;;;;5117495;28;20741;-61
2024/03/31 08:14:33;;;;;;;9.13;3.10;;;15.00;99.90;;;;;;5117225;28;20495;-62
2024/03/31 08:17:00;;;;;;;14.10;4.20;;;15.00;99.90;;;;;;5116778;28;20504;-61
2024/03/31 08:19:28;;;;;;;8.40;3.70;;;15.00;99.90;;;;;;5117633;28;20473;-61
2024/03/31 08:21:54;;;;;;;10.10;4.07;;;14.80;99.90;;;;;;5117038;28;20802;-61
2024/03/31 08:24:21;;;;;;;12.77;4.33;;;14.80;99.90;;;;;;5117408;28;20541;-62
2024/03/31 08:26:48;;;;;;;8.53;2.73;;;14.70;99.90;;;;;;5117344;28;20495;-61
2024/03/31 08:29:19;;;;;;;6.60;3.17;;;14.60;43.10;;;;;;5117156;28;20847;-61
2024/03/31 08:31:46;;;;;;;10.27;3.60;;;14.80;99.90;;;;;;5121463;28;20544;-61
2024/03/31 08:34:15;;;;;;;6.80;2.80;;;15.20;99.90;;;;;;5120643;28;20483;-61
2024/03/31 08:36:41;;;;;;;7.97;3.00;;;15.80;99.90;;;;;;5121484;28;20460;-61
2024/03/31 08:39:09;;;;;;;10.57;3.13;;;16.20;99.90;;;;;;5121056;28;20444;-61
2024/03/31 08:41:44;;;;;;;9.83;2.87;;;16.50;99.90;;;;;;5120902;28;20752;-62
2024/03/31 08:44:15;;;;;;;9.10;3.43;;;16.80;1.00;;;;;;5120198;28;20458;-62
2024/03/31 08:46:42;;;;;;;8.10;2.93;;;17.10;1.00;;;;;;5120374;28;20463;-63
2024/03/31 08:49:10;;;;;;;8.13;3.53;;;17.40;1.00;;;;;;5119615;28;20805;-62
2024/03/31 08:51:38;;;;;;;9.13;3.27;;;17.40;1.00;;;;;;5119758;28;20507;-62
2024/03/31 08:54:06;;;;;;;12.00;3.10;;;17.40;1.00;;;;;;5119828;28;20866;-62
2024/03/31 08:56:32;;;;;;;10.67;3.50;;;17.60;1.00;;;;;;5119156;28;20853;-62
2024/03/31 08:59:01;;;;;;;6.43;2.87;;;17.70;1.00;;;;;;5119963;28;20809;-63
2024/03/31 09:01:28;;;;;;;9.27;2.83;;;17.80;1.00;;;;;;5120231;28;20813;-62
2024/03/31 09:03:56;;;;;;;8.27;3.50;;;17.80;99.90;;;;;;5120210;28;20483;-62
2024/03/31 09:06:23;;;;;;;11.47;3.17;;;17.80;99.90;;;;;;5119703;28;20569;-62
2024/03/31 09:08:58;;;;;;;5.50;2.77;;;18.10;99.90;;;;;;5119061;28;20758;-62
2024/03/31 09:11:25;;;;;;;8.47;2.70;;;18.20;99.90;;;;;;5119635;28;20490;-63
2024/03/31 09:13:52;;;;;;;10.37;3.23;;;18.40;99.90;;;;;;5119715;28;20521;-63
2024/03/31 09:16:18;;;;;;;14.17;3.67;;;18.50;99.90;;;;;;5120359;28;20513;-62
2024/03/31 09:18:46;;;;;;;11.50;3.27;;;18.70;99.90;;;;;;5121252;28;20868;-62
2024/03/31 09:21:12;;;;;;;6.37;3.10;;;19.10;99.90;;;;;;5121270;28;20426;-62
2024/03/31 09:23:41;;;;;;;8.40;2.70;;;19.20;99.90;;;;;;5121629;28;20512;-62
2024/03/31 09:26:09;;;;;;;7.30;2.90;;;19.60;99.90;;;;;;5120754;28;20451;-63
2024/03/31 09:28:37;;;;;;;6.13;2.80;;;19.70;84.10;;;;;;5121084;28;20459;-62
2024/03/31 09:31:03;;;;;;;7.17;3.37;;;20.00;1.00;;;;;;5121213;28;20494;-63
2024/03/31 09:33:33;;;;;;;7.37;3.80;;;20.20;1.00;;;;;;5121080;28;20500;-63
2024/03/31 09:36:01;;;;;;;10.03;3.40;;;20.20;1.00;;;;;;5120440;28;20482;-63
2024/03/31 09:38:29;;;;;;;10.03;2.60;;;20.30;1.00;;;;;;5120157;28;20460;-62
2024/03/31 09:40:55;;;;;;;5.77;2.80;;;20.30;1.00;;;;;;5118673;28;20456;-62
2024/03/31 09:43:25;;;;;;;7.87;3.27;;;20.10;99.90;;;;;;5118160;28;20455;-62
2024/03/31 09:45:51;;;;;;;7.33;3.20;;;20.20;99.90;;;;;;5118407;28;20468;-62
2024/03/31 09:48:24;;;;;;;8.77;3.40;;;20.40;99.90;;;;;;5118343;28;20456;-62
2024/03/31 09:50:58;;;;;;;8.13;2.83;;;20.40;99.90;;;;;;5119316;28;20498;-62
2024/03/31 09:53:29;;;;;;;5.73;2.57;;;20.70;99.90;;;;;;5120075;28;20512;-62
2024/03/31 09:56:02;;;;;;;8.87;2.87;;;20.80;99.90;;;;;;5119793;28;20456;-61
2024/03/31 09:58:34;;;;;;;9.37;2.63;;;20.90;99.90;;;;;;5119889;28;20455;-62
2024/03/31 10:01:03;;;;;;;7.63;2.87;;;21.00;99.90;;;;;;5119385;28;20481;-61
2024/03/31 10:03:35;;;;;;;9.57;3.20;;;21.20;99.90;;;;;;5119573;28;20455;-63
2024/03/31 10:06:02;;;;;;;11.00;2.70;;;21.00;38.70;;;;;;5118620;28;20816;-62
2024/03/31 10:08:30;;;;;;;6.33;2.80;;;20.60;14.90;;;;;;5118967;28;20505;-62
2024/03/31 10:10:58;;;;;;;11.10;3.37;;;20.70;22.90;;;;;;5119156;28;20999;-61
2024/03/31 10:13:27;;;;;;;10.97;3.27;;;21.00;1.00;;;;;;5119220;28;20505;-61
2024/03/31 10:15:55;;;;;;;7.43;3.57;;;21.10;1.00;;;;;;5118908;28;20459;-61
2024/03/31 10:18:25;;;;;;;9.20;3.60;;;21.30;1.00;;;;;;5119619;28;20467;-60
2024/03/31 10:20:52;;;;;;;7.57;3.20;;;21.30;1.00;;;;;;5119521;28;20485;-60
2024/03/31 10:23:20;;;;;;;10.30;5.10;;;21.00;1.00;;;;;;5119426;28;20455;-62
2024/03/31 10:25:46;;;;;;;10.70;3.33;;;20.70;1.00;;;;;;5119041;28;20459;-60
2024/03/31 10:28:15;;;;;;;12.37;3.57;;;20.70;1.00;;;;;;5118762;28;20989;-60
2024/03/31 10:30:42;;;;;;;18.60;10.00;;;21.00;1.00;;;;;;5118754;28;20487;-60
2024/03/31 10:33:12;;;;;;;10.47;3.43;;;21.30;1.00;;;;;;5119092;28;20459;-60
2024/03/31 10:35:40;;;;;;;9.90;2.70;;;21.50;1.00;;;;;;5118795;28;20470;-60
2024/03/31 10:38:12;;;;;;;8.57;2.97;;;21.60;1.00;;;;;;5118647;28;20455;-61
2024/03/31 10:40:38;;;;;;;8.93;2.97;;;21.80;1.00;;;;;;5118765;28;20456;-60
2024/03/31 10:43:07;;;;;;;11.40;3.10;;;21.90;1.00;;;;;;5118774;28;20459;-61
2024/03/31 10:45:33;;;;;;;8.17;2.50;;;22.00;1.00;;;;;;5118751;28;20459;-61
2024/03/31 10:48:02;;;;;;;9.10;3.40;;;22.00;1.00;;;;;;5118595;28;20460;-61
2024/03/31 10:50:30;;;;;;;7.30;3.20;;;22.00;99.90;;;;;;5118535;28;20787;-61
2024/03/31 10:52:58;;;;;;;12.63;4.90;;;22.00;99.90;;;;;;5117573;28;20460;-61
2024/03/31 10:55:28;;;;;;;12.00;3.23;;;22.20;99.90;;;;;;5118209;28;20562;-61
2024/03/31 10:57:59;;;;;;;9.50;5.57;;;22.10;99.90;;;;;;5117873;28;20456;-61
2024/03/31 11:00:25;;;;;;;5.90;2.80;;;22.30;99.90;;;;;;5118024;28;20455;-61
2024/03/31 11:02:54;;;;;;;6.90;3.20;;;22.60;99.90;;;;;;5116653;28;20545;-61
2024/03/31 11:05:21;;;;;;;8.53;3.20;;;22.50;99.90;;;;;;5117119;28;20750;-61
2024/03/31 11:07:54;;;;;;;8.40;3.43;;;22.20;99.90;;;;;;5118417;28;20455;-61
2024/03/31 11:10:21;;;;;;;5.57;3.23;;;22.50;99.90;;;;;;5117954;28;20487;-61
2024/03/31 11:12:50;;;;;;;5.27;3.80;;;22.80;99.90;;;;;;5118282;28;20575;-61
2024/03/31 11:15:17;;;;;;;13.03;6.63;;;23.10;99.90;;;;;;5118003;28;20455;-58
2024/03/31 11:17:45;;;;;;;10.93;5.13;;;23.40;99.90;;;;;;5117436;28;20544;-59
2024/03/31 11:20:12;;;;;;;6.53;4.00;;;23.60;99.90;;;;;;5117748;28;20451;-57
2024/03/31 11:22:40;;;;;;;14.67;3.00;;;23.60;99.90;;;;;;5117893;28;20570;-58
2024/03/31 11:25:08;;;;;;;9.00;3.90;;;23.50;99.90;;;;;;5116902;28;20456;-59
2024/03/31 11:27:36;;;;;;;6.23;3.23;;;23.70;99.90;;;;;;5117445;28;20459;-58
2024/03/31 11:30:04;;;;;;;8.53;3.50;;;24.20;1.00;;;;;;5113807;28;20931;-58
2024/03/31 11:32:32;;;;;;;7.23;3.20;;;24.50;1.00;;;;;;5116278;28;20487;-59
2024/03/31 11:35:04;;;;;;;10.57;2.80;;;24.40;1.00;;;;;;5117550;28;20490;-58
2024/03/31 11:37:33;;;;;;;10.83;2.60;;;24.30;1.00;;;;;;5117532;28;20463;-58
2024/03/31 11:40:00;;;;;;;8.70;2.33;;;24.70;1.00;;;;;;5117024;28;20459;-58
2024/03/31 11:42:29;;;;;;;9.00;2.63;;;25.00;1.00;;;;;;5117495;28;20760;-57
2024/03/31 11:44:55;;;;;;;7.40;3.00;;;24.80;1.00;;;;;;5113691;28;20525;-57
2024/03/31 11:47:23;;;;;;;7.30;2.77;;;24.30;1.00;;;;;;5104087;28;20782;-57
2024/03/31 11:49:50;;;;;;;7.40;3.00;;;24.00;1.00;;;;;;5117744;28;20469;-58
2024/03/31 11:52:17;;;;;;;7.00;3.07;;;23.70;1.00;;;;;;5116222;28;20491;-57
2024/03/31 11:54:45;;;;;;;13.03;3.97;;;23.70;1.00;;;;;;5117194;28;20512;-58
2024/03/31 11:57:12;;;;;;;10.70;3.27;;;23.50;1.00;;;;;;5117774;28;20490;-58
2024/03/31 11:59:40;;;;;;;7.93;2.90;;;23.00;1.00;;;;;;5117917;28;20872;-57
2024/03/31 12:02:08;;;;;;;6.80;2.73;;;22.50;1.00;;;;;;5117657;28;20495;-59
2024/03/31 12:04:34;;;;;;;8.87;2.70;;;22.30;1.00;;;;;;5118049;28;20880;-59
2024/03/31 12:07:02;;;;;;;9.70;2.80;;;22.30;1.00;;;;;;5122161;28;20876;-58
2024/03/31 12:09:29;;;;;;;8.03;2.30;;;22.60;1.00;;;;;;5121879;28;20459;-59
2024/03/31 12:11:59;;;;;;;8.13;2.87;;;23.00;1.00;;;;;;5120535;28;20490;-59
2024/03/31 12:14:26;;;;;;;12.20;2.83;;;23.30;1.00;;;;;;5120981;28;20462;-59
2024/03/31 12:16:55;;;;;;;9.00;3.43;;;23.60;1.00;;;;;;5120157;28;20569;-59
2024/03/31 12:19:22;;;;;;;9.63;3.70;;;23.90;1.00;;;;;;5120774;28;20466;-58
2024/03/31 12:21:51;;;;;;;7.93;3.43;;;23.90;1.00;;;;;;5120188;28;20455;-59
2024/03/31 12:24:18;;;;;;;5.50;2.80;;;23.50;1.00;;;;;;5119139;28;20451;-60
2024/03/31 12:26:48;;;;;;;6.60;3.00;;;22.50;1.00;;;;;;5121127;28;20772;-59
2024/03/31 12:29:19;;;;;;;7.50;3.17;;;21.60;1.00;;;;;;5121488;28;20516;-58
2024/03/31 12:31:47;;;;;;;9.97;3.50;;;21.00;1.00;;;;;;5121517;28;20531;-59
2024/03/31 12:34:15;;;;;;;8.30;2.63;;;20.90;1.00;;;;;;5121008;28;20509;-59
2024/03/31 12:36:43;;;;;;;11.03;3.30;;;20.90;1.00;;;;;;5121461;28;20922;-59
2024/03/31 12:39:09;;;;;;;7.27;2.67;;;20.90;1.00;;;;;;5120318;28;20451;-59
2024/03/31 12:41:37;;;;;;;7.57;3.70;;;21.00;1.00;;;;;;5120934;28;20542;-59
2024/03/31 12:44:05;;;;;;;9.50;3.40;;;21.10;1.00;;;;;;5120077;28;20748;-58
2024/03/31 12:46:33;;;;;;;8.40;2.80;;;21.20;1.00;;;;;;5120511;28;20463;-59